Time;durP1;ratioP1;P1;durP2;ratioP2;P2;SDS_P1;SDS_P2;PMS_P1;PMS_P2;Temp;Humidity;BMP_temperature;BMP_pressure;BME280_temperature;BME280_humidity;BME280_pressure;Samples;Min_cycle;Max_cycle;Signal;HPM_P1;HPM_P2
2021/08/31 00:01:04;;;;;;;6.85;6.30;;;;;;;18.70;82.18;98894.36;1767225;80;21500;-52
2021/08/31 00:03:31;;;;;;;6.67;6.00;;;;;;;18.66;82.18;98908.77;1765469;80;20906;-50
2021/08/31 00:05:57;;;;;;;6.37;5.90;;;;;;;18.64;82.24;98915.37;1767194;80;20919;-51
2021/08/31 00:08:24;;;;;;;6.37;5.55;;;;;;;18.59;82.37;98906.77;1770347;80;21063;-50
2021/08/31 00:10:52;;;;;;;8.25;6.42;;;;;;;18.58;82.42;98906.41;1768769;80;20891;-51
2021/08/31 00:13:18;;;;;;;8.78;6.12;;;;;;;18.57;82.48;98909.64;1770405;80;20945;-50
2021/08/31 00:15:45;;;;;;;7.60;6.03;;;;;;;18.54;82.53;98912.11;1766804;80;20965;-52
2021/08/31 00:18:13;;;;;;;6.42;5.87;;;;;;;18.54;82.63;98911.28;1770978;79;20962;-50
2021/08/31 00:20:40;;;;;;;9.05;7.15;;;;;;;18.54;82.64;98911.28;1764341;80;22332;-50
2021/08/31 00:23:07;;;;;;;11.97;7.05;;;;;;;18.53;82.63;98909.55;1768830;80;20965;-51
2021/08/31 00:25:34;;;;;;;6.72;6.12;;;;;;;18.52;82.61;98907.83;1767574;80;20991;-51
2021/08/31 00:28:00;;;;;;;7.00;6.30;;;;;;;18.51;82.62;98911.55;1768072;80;20914;-52
2021/08/31 00:30:26;;;;;;;6.47;5.87;;;;;;;18.48;82.58;98916.78;1769542;80;20974;-51
2021/08/31 00:32:53;;;;;;;5.70;5.17;;;;;;;18.45;82.53;98911.64;1767964;80;22552;-50
2021/08/31 00:35:20;;;;;;;9.05;5.55;;;;;;;18.44;82.59;98913.14;1764704;80;21400;-52
2021/08/31 00:37:46;;;;;;;10.30;5.90;;;;;;;18.42;82.54;98913.78;1763368;79;21402;-51
2021/08/31 00:40:14;;;;;;;7.95;5.92;;;;;;;18.39;82.55;98915.42;1765069;80;21045;-51
2021/08/31 00:42:40;;;;;;;6.30;5.42;;;;;;;18.35;82.54;98916.72;1763008;80;21106;-51
2021/08/31 00:45:08;;;;;;;6.30;5.47;;;;;;;18.33;82.61;98918.72;1765054;80;21714;-50
2021/08/31 00:47:35;;;;;;;4.83;3.77;;;;;;;18.30;82.59;98920.36;1783705;78;21096;-52
2021/08/31 00:50:02;;;;;;;5.15;4.05;;;;;;;18.26;82.68;98918.44;1783819;79;21507;-53
2021/08/31 00:52:30;;;;;;;5.22;3.67;;;;;;;18.21;82.56;98923.94;1785287;78;21108;-52
2021/08/31 00:54:57;;;;;;;4.70;4.20;;;;;;;18.16;82.67;98936.63;1780452;78;21515;-52
2021/08/31 00:57:23;;;;;;;7.78;4.03;;;;;;;18.14;82.77;98938.12;1784725;78;21602;-52
2021/08/31 00:59:50;;;;;;;4.90;3.75;;;;;;;18.12;82.90;98936.04;1780459;78;21512;-52
2021/08/31 01:02:16;;;;;;;3.98;3.52;;;;;;;18.11;82.89;98941.66;1784487;78;21049;-51
2021/08/31 01:04:43;;;;;;;5.67;4.12;;;;;;;18.10;82.94;98946.23;1784929;78;21421;-51
2021/08/31 01:07:10;;;;;;;5.08;4.30;;;;;;;18.10;82.97;98945.38;1790100;78;21656;-51
2021/08/31 01:09:36;;;;;;;7.20;5.00;;;;;;;18.09;83.03;98945.88;1780420;78;21499;-52
2021/08/31 01:12:04;;;;;;;6.42;4.70;;;;;;;18.12;83.06;98948.80;1784061;78;22332;-52
2021/08/31 01:14:30;;;;;;;4.90;4.60;;;;;;;18.11;83.03;98943.88;1783921;78;21060;-50
2021/08/31 01:16:57;;;;;;;4.72;3.65;;;;;;;18.12;83.07;98956.47;1756538;79;21049;-52
2021/08/31 01:19:30;;;;;;;6.60;4.25;;;;;;;18.11;83.11;98957.50;1778996;78;21059;-51
2021/08/31 01:22:05;;;;;;;8.03;4.25;;;;;;;18.10;83.08;98957.13;1783644;78;21770;-53
2021/08/31 01:24:32;;;;;;;5.47;3.83;;;;;;;18.11;83.10;98950.69;1777401;79;21086;-52
2021/08/31 01:27:00;;;;;;;5.25;3.45;;;;;;;18.11;83.07;98956.63;1785521;78;20883;-51
2021/08/31 01:29:27;;;;;;;4.33;3.72;;;;;;;18.10;83.08;98958.99;1783531;79;21100;-51
2021/08/31 01:31:54;;;;;;;5.17;4.42;;;;;;;18.09;83.13;98961.35;1753874;79;21137;-52
2021/08/31 01:34:21;;;;;;;7.30;5.00;;;;;;;18.09;83.19;98961.35;1784116;78;21349;-52
2021/08/31 01:36:47;;;;;;;6.80;4.67;;;;;;;18.08;83.17;98960.48;1783879;79;21001;-52
2021/08/31 01:39:14;;;;;;;7.72;4.20;;;;;;;18.07;83.24;98959.27;1782783;79;21124;-50
2021/08/31 01:41:41;;;;;;;10.30;4.60;;;;;;;18.07;83.25;98968.30;1783378;78;21146;-51
2021/08/31 01:44:07;;;;;;;6.78;4.67;;;;;;;18.05;83.28;98964.84;1783687;78;21412;-51
2021/08/31 01:46:34;;;;;;;3.22;2.90;;;;;;;18.03;83.28;98962.75;1788589;78;21129;-52
2021/08/31 01:49:00;;;;;;;7.83;3.08;;;;;;;18.02;83.36;98967.86;1766735;80;21033;-52
2021/08/31 01:51:27;;;;;;;4.90;3.62;;;;;;;18.02;83.42;98965.14;1762120;80;21528;-51
2021/08/31 01:53:53;;;;;;;4.85;4.05;;;;;;;18.03;83.42;98972.28;1756163;79;21473;-53
2021/08/31 01:56:19;;;;;;;6.05;4.37;;;;;;;18.03;83.37;98966.01;1764274;80;21517;-52
2021/08/31 01:58:47;;;;;;;5.37;5.00;;;;;;;18.02;83.44;98975.17;1763406;80;21378;-52
2021/08/31 02:01:13;;;;;;;8.25;4.15;;;;;;;18.02;83.43;98973.31;1764607;79;22174;-51
2021/08/31 02:03:40;;;;;;;6.30;3.92;;;;;;;18.04;83.36;98981.31;1762326;80;21638;-53
2021/08/31 02:06:06;;;;;;;3.10;2.90;;;;;;;18.03;83.23;98972.28;1768084;80;21112;-52
2021/08/31 02:08:33;;;;;;;5.37;3.37;;;;;;;18.00;82.93;98975.30;1763421;79;21668;-51
2021/08/31 02:10:59;;;;;;;2.60;2.10;;;;;;;17.95;82.86;98969.40;1761395;80;21648;-52
2021/08/31 02:13:26;;;;;;;3.72;3.42;;;;;;;17.92;82.78;98968.34;1761885;80;21106;-52
2021/08/31 02:15:53;;;;;;;8.23;3.65;;;;;;;17.90;82.80;98971.69;1764824;80;21323;-52
2021/08/31 02:18:20;;;;;;;3.95;3.02;;;;;;;17.91;82.82;98968.47;1765382;80;21272;-52
2021/08/31 02:20:48;;;;;;;4.40;4.00;;;;;;;17.91;82.76;98964.39;1768288;80;21493;-53
2021/08/31 02:23:15;;;;;;;3.62;3.33;;;;;;;17.91;82.71;98960.30;1762286;80;21725;-53
2021/08/31 02:25:41;;;;;;;3.80;3.50;;;;;;;17.92;82.63;98962.03;1766132;80;21009;-52
2021/08/31 02:28:08;;;;;;;3.80;3.50;;;;;;;17.91;82.52;98964.39;1765539;80;21085;-53
2021/08/31 02:30:34;;;;;;;3.87;3.47;;;;;;;17.89;82.49;98965.02;1766883;80;21062;-53
2021/08/31 02:33:02;;;;;;;4.62;2.70;;;;;;;17.87;82.53;98965.65;1764876;79;21749;-54
2021/08/31 02:35:29;;;;;;;2.67;2.47;;;;;;;17.85;82.58;98973.98;1766805;80;22147;-53
2021/08/31 02:37:56;;;;;;;8.58;3.37;;;;;;;17.84;82.42;98979.06;1765415;79;22116;-53
2021/08/31 02:40:22;;;;;;;3.12;2.15;;;;;;;17.83;82.21;98983.27;1762970;80;21488;-51
2021/08/31 02:42:49;;;;;;;4.28;1.80;;;;;;;17.78;81.83;98999.50;1765260;80;22142;-51
2021/08/31 02:45:15;;;;;;;4.70;1.70;;;;;;;17.72;81.46;98997.34;1767245;80;21464;-51
2021/08/31 02:47:42;;;;;;;3.98;1.62;;;;;;;17.65;81.27;99002.11;1766819;79;21551;-51
2021/08/31 02:50:09;;;;;;;2.10;1.87;;;;;;;17.62;81.14;98996.93;1769390;80;21279;-51
2021/08/31 02:52:35;;;;;;;2.42;1.82;;;;;;;17.54;80.88;98992.64;1764207;80;20859;-50
2021/08/31 02:55:05;;;;;;;3.20;1.57;;;;;;;17.47;80.89;99004.57;1770927;80;21278;-51
2021/08/31 02:57:32;;;;;;;2.85;2.12;;;;;;;17.44;80.84;99005.36;1767330;80;21548;-52
2021/08/31 03:00:00;;;;;;;2.02;1.70;;;;;;;17.40;80.73;99016.50;1767128;80;21772;-52
2021/08/31 03:02:27;;;;;;;1.70;1.60;;;;;;;17.36;80.70;99015.52;1765323;79;21014;-54
2021/08/31 03:04:53;;;;;;;2.80;1.65;;;;;;;17.33;80.66;99007.16;1765871;79;21362;-52
2021/08/31 03:07:20;;;;;;;2.15;2.05;;;;;;;17.31;80.45;99018.66;1768329;79;20954;-52
2021/08/31 03:09:48;;;;;;;1.90;1.80;;;;;;;17.29;80.15;99009.77;1767839;80;20923;-50
2021/08/31 03:12:14;;;;;;;2.72;1.67;;;;;;;17.26;79.95;99010.55;1769526;79;22182;-52
2021/08/31 03:14:41;;;;;;;2.58;2.47;;;;;;;17.21;79.79;99007.35;1767958;80;20895;-51
2021/08/31 03:17:08;;;;;;;2.08;1.87;;;;;;;17.13;79.58;99014.81;1767117;80;20957;-51
2021/08/31 03:19:35;;;;;;;2.98;2.20;;;;;;;17.06;79.44;99010.91;1768405;80;20942;-52
2021/08/31 03:22:03;;;;;;;4.53;2.17;;;;;;;16.97;79.37;99004.91;1766937;80;21597;-51
2021/08/31 03:24:30;;;;;;;7.37;2.10;;;;;;;16.92;79.41;99001.73;1768825;80;21962;-53
2021/08/31 03:26:57;;;;;;;3.30;1.72;;;;;;;16.86;79.42;99007.18;1763936;80;21355;-53
2021/08/31 03:29:23;;;;;;;8.95;2.65;;;;;;;16.81;79.49;99001.28;1762101;80;21541;-53
2021/08/31 03:31:50;;;;;;;2.42;2.33;;;;;;;16.79;79.56;98996.97;1763344;79;21038;-52
2021/08/31 03:34:16;;;;;;;1.75;1.65;;;;;;;16.77;79.66;99001.66;1765540;80;21058;-52
2021/08/31 03:36:44;;;;;;;5.70;1.92;;;;;;;16.75;79.62;98998.23;1758877;80;22261;-52
2021/08/31 03:39:11;;;;;;;6.08;2.80;;;;;;;16.75;79.61;99005.03;1760446;80;21058;-51
2021/08/31 03:41:37;;;;;;;6.92;2.92;;;;;;;16.71;79.65;99003.06;1762224;80;21713;-51
2021/08/31 03:44:05;;;;;;;3.22;3.02;;;;;;;16.70;79.62;99007.27;1763820;80;21155;-51
2021/08/31 03:46:32;;;;;;;5.08;2.72;;;;;;;16.64;79.66;99008.66;1763369;80;21525;-51
2021/08/31 03:49:01;;;;;;;7.03;2.85;;;;;;;16.58;79.71;99010.02;1769151;80;22584;-50
2021/08/31 03:51:27;;;;;;;4.50;2.12;;;;;;;16.55;79.76;99017.05;1765664;80;21478;-51
2021/08/31 03:53:53;;;;;;;5.05;2.40;;;;;;;16.52;79.86;99016.44;1763225;79;21981;-51
2021/08/31 03:56:20;;;;;;;5.78;2.83;;;;;;;16.51;79.94;99015.57;1764909;79;21053;-51
2021/08/31 03:58:46;;;;;;;3.83;2.40;;;;;;;16.48;80.05;99022.64;1764674;79;21121;-51
2021/08/31 04:01:14;;;;;;;6.47;2.72;;;;;;;16.47;80.14;99019.55;1760814;79;21050;-53
2021/08/31 04:03:41;;;;;;;33.02;12.50;;;;;;;16.52;80.29;99026.81;1763386;80;21081;-53
2021/08/31 04:06:07;;;;;;;6.35;4.03;;;;;;;16.58;80.47;99023.59;1769647;80;21422;-51
2021/08/31 04:08:34;;;;;;;5.87;2.87;;;;;;;16.71;81.08;99024.80;1764303;80;21644;-51
2021/08/31 04:11:01;;;;;;;3.20;2.77;;;;;;;16.78;80.88;99027.85;1766157;80;21574;-52
2021/08/31 04:13:27;;;;;;;6.50;3.15;;;;;;;16.82;80.77;99026.61;1765966;79;21491;-53
2021/08/31 04:15:54;;;;;;;4.17;3.05;;;;;;;16.86;80.57;99029.42;1768150;80;21483;-52
2021/08/31 04:18:28;;;;;;;8.48;3.30;;;;;;;16.91;80.45;99031.27;1768413;80;22145;-55
2021/08/31 04:21:03;;;;;;;4.70;3.33;;;;;;;16.94;80.22;99036.42;1768317;80;21079;-51
2021/08/31 04:23:33;;;;;;;3.62;3.30;;;;;;;16.96;80.15;99039.88;1763947;80;21180;-52
2021/08/31 04:26:08;;;;;;;9.93;3.98;;;;;;;16.98;80.03;99043.34;1762504;80;21809;-53
2021/08/31 04:28:37;;;;;;;4.95;3.77;;;;;;;16.98;79.80;99045.56;1712502;80;21066;-54
2021/08/31 04:31:10;;;;;;;4.60;3.65;;;;;;;16.96;79.52;99045.31;1761474;80;21077;-54
2021/08/31 04:33:37;;;;;;;2.85;2.65;;;;;;;16.91;79.25;99047.58;1762737;80;21105;-54
2021/08/31 04:36:12;;;;;;;3.37;3.08;;;;;;;16.84;79.27;99048.57;1767718;79;20903;-54
2021/08/31 04:38:45;;;;;;;4.00;2.80;;;;;;;16.80;79.29;99039.46;1767338;80;21312;-53
2021/08/31 04:41:15;;;;;;;3.72;3.42;;;;;;;16.79;79.33;99045.39;1765343;80;22295;-55
2021/08/31 04:43:46;;;;;;;5.25;3.05;;;;;;;16.80;79.33;99047.62;1763533;80;21638;-54
2021/08/31 04:46:20;;;;;;;3.45;3.15;;;;;;;16.83;79.18;99050.09;1762163;80;21106;-55
2021/08/31 04:48:48;;;;;;;3.77;3.47;;;;;;;16.84;79.11;99043.66;1761954;79;21853;-53
2021/08/31 04:51:18;;;;;;;2.92;2.72;;;;;;;16.86;79.05;99052.52;1764646;80;21203;-54
2021/08/31 04:53:46;;;;;;;9.35;2.90;;;;;;;16.88;79.03;99048.69;1763377;79;21061;-52
2021/08/31 04:56:13;;;;;;;2.92;2.70;;;;;;;16.92;78.79;99056.10;1762912;80;21045;-54
2021/08/31 04:58:40;;;;;;;3.55;2.50;;;;;;;16.92;78.63;99043.38;1795953;78;21574;-54
2021/08/31 05:01:11;;;;;;;4.83;2.72;;;;;;;16.95;78.54;99044.95;1764080;79;21112;-52
2021/08/31 05:03:38;;;;;;;6.47;3.60;;;;;;;16.97;78.36;99048.41;1763905;80;22537;-53
2021/08/31 05:06:11;;;;;;;5.55;2.62;;;;;;;16.96;78.16;99049.39;1743895;80;21069;-56
2021/08/31 05:08:40;;;;;;;3.55;3.00;;;;;;;16.95;77.98;99056.69;1765329;80;21080;-54
2021/08/31 05:11:18;;;;;;;3.17;2.98;;;;;;;16.94;77.79;99050.02;1756195;80;20978;-54
2021/08/31 05:13:50;;;;;;;3.20;2.90;;;;;;;16.94;77.74;99050.02;1765827;80;20983;-51
2021/08/31 05:16:20;;;;;;;2.58;2.37;;;;;;;16.97;77.80;99051.98;1761422;80;21812;-53
2021/08/31 05:18:54;;;;;;;2.58;1.85;;;;;;;17.03;77.78;99051.45;1763079;80;21112;-54
2021/08/31 05:21:21;;;;;;;3.77;2.10;;;;;;;17.10;77.66;99061.83;1769765;80;21131;-52
2021/08/31 05:23:56;;;;;;;5.33;2.55;;;;;;;17.14;77.59;99057.33;1763149;80;21107;-57
2021/08/31 05:26:27;;;;;;;3.05;2.65;;;;;;;17.21;77.59;99058.53;1763488;80;21390;-52
2021/08/31 05:28:57;;;;;;;3.40;3.05;;;;;;;17.29;77.46;99066.88;1766555;80;21117;-53
2021/08/31 05:31:30;;;;;;;4.53;2.52;;;;;;;17.37;77.09;99066.22;1770040;80;21164;-54
2021/08/31 05:33:58;;;;;;;2.35;2.15;;;;;;;17.42;76.53;99070.78;1770333;80;20915;-54
2021/08/31 05:36:28;;;;;;;3.75;1.90;;;;;;;17.44;76.06;99066.57;1740738;80;21132;-52
2021/08/31 05:38:55;;;;;;;1.90;1.57;;;;;;;17.44;75.83;99053.80;1761678;79;21156;-51
2021/08/31 05:41:21;;;;;;;4.90;1.95;;;;;;;17.45;75.63;99060.10;1763470;80;22180;-49
2021/08/31 05:43:48;;;;;;;1.85;1.52;;;;;;;17.49;75.69;99062.94;1763531;80;21065;-50
2021/08/31 05:46:14;;;;;;;2.15;1.82;;;;;;;17.53;75.25;99054.85;1764948;80;21085;-52
2021/08/31 05:48:40;;;;;;;3.00;2.05;;;;;;;17.55;74.87;99060.53;1754480;80;21042;-52
2021/08/31 05:51:08;;;;;;;1.77;1.67;;;;;;;17.57;74.66;99055.83;1750769;81;20923;-53
2021/08/31 05:56:04;;;;;;;7.30;1.77;;;;;;;17.62;74.48;99042.70;1775101;78;28106;-52
2021/08/31 05:58:30;;;;;;;4.37;1.47;;;;;;;17.60;74.43;99046.55;1744232;80;20975;-52
2021/08/31 06:00:56;;;;;;;1.67;1.20;;;;;;;17.62;74.34;99045.42;1745306;80;22125;-52
2021/08/31 06:03:23;;;;;;;1.52;1.42;;;;;;;17.67;74.51;99056.78;1741895;80;20997;-52
2021/08/31 06:05:49;;;;;;;1.67;1.30;;;;;;;17.73;74.68;99048.56;1739065;80;21058;-50
2021/08/31 06:08:15;;;;;;;3.67;1.82;;;;;;;17.80;74.26;99052.45;1751416;80;21435;-52
2021/08/31 06:10:42;;;;;;;2.72;1.90;;;;;;;17.88;74.16;99044.96;1735123;80;22005;-53
2021/08/31 06:13:10;;;;;;;1.70;1.60;;;;;;;17.96;74.10;99058.25;1738270;80;21461;-52
2021/08/31 06:15:36;;;;;;;2.75;1.60;;;;;;;18.01;73.86;99051.05;1736580;80;21489;-53
2021/08/31 06:18:03;;;;;;;2.42;2.22;;;;;;;18.04;73.74;99058.42;1733072;80;22280;-52
2021/08/31 06:20:29;;;;;;;7.45;2.25;;;;;;;18.10;73.94;99053.81;1681024;82;21142;-52
2021/08/31 06:22:55;;;;;;;1.60;1.50;;;;;;;18.18;73.83;99064.52;1701402;81;21098;-53
2021/08/31 06:25:22;;;;;;;1.67;1.47;;;;;;;18.24;73.47;99059.36;1700576;81;21136;-51
2021/08/31 06:27:49;;;;;;;1.75;1.62;;;;;;;18.29;73.47;99059.80;1699693;81;21126;-53
2021/08/31 06:30:15;;;;;;;2.20;2.08;;;;;;;18.36;73.34;99060.12;1698357;81;21078;-53
2021/08/31 06:32:41;;;;;;;2.08;1.50;;;;;;;18.40;73.01;99053.38;1702326;81;21102;-53
2021/08/31 06:35:09;;;;;;;1.55;1.30;;;;;;;18.42;72.99;99057.69;1697613;82;21090;-52
2021/08/31 06:37:35;;;;;;;5.53;1.62;;;;;;;18.45;72.75;99059.28;1698275;81;21016;-53
2021/08/31 06:40:02;;;;;;;2.72;1.60;;;;;;;18.50;72.33;99066.53;1697824;81;20972;-50
2021/08/31 06:42:28;;;;;;;2.55;1.30;;;;;;;18.54;72.04;99067.98;1695921;81;22397;-53
2021/08/31 06:44:55;;;;;;;3.33;1.15;;;;;;;18.59;72.08;99063.48;1701398;81;21137;-52
2021/08/31 06:47:21;;;;;;;3.70;1.57;;;;;;;18.65;72.04;99061.05;1698017;81;21095;-52
2021/08/31 06:49:48;;;;;;;2.40;1.35;;;;;;;18.71;72.04;99067.83;1696070;81;21755;-52
2021/08/31 06:52:14;;;;;;;2.52;1.60;;;;;;;18.78;71.91;99071.20;1692970;82;21150;-51
2021/08/31 06:54:41;;;;;;;2.12;1.27;;;;;;;18.81;71.55;99065.45;1692452;81;21071;-51
2021/08/31 06:57:08;;;;;;;1.90;1.10;;;;;;;18.82;71.15;99063.08;1679280;82;21127;-53
2021/08/31 06:59:34;;;;;;;3.62;1.00;;;;;;;18.83;71.10;99053.90;1680170;82;21092;-52
2021/08/31 07:02:00;;;;;;;1.10;1.00;;;;;;;18.86;71.08;99060.94;1718927;81;21516;-53
2021/08/31 07:04:27;;;;;;;2.75;0.93;;;;;;;18.94;71.13;99065.18;1724510;80;21827;-50
2021/08/31 07:06:55;;;;;;;1.47;1.10;;;;;;;19.02;71.33;99063.95;1714536;81;21552;-53
2021/08/31 07:09:21;;;;;;;1.45;1.10;;;;;;;19.09;71.44;99055.55;1717408;81;21651;-53
2021/08/31 07:11:47;;;;;;;2.52;1.22;;;;;;;19.17;70.87;99067.96;1728165;81;20966;-52
2021/08/31 07:14:14;;;;;;;2.00;1.20;;;;;;;19.18;70.54;99068.83;1724719;81;21126;-50
2021/08/31 07:16:42;;;;;;;1.25;1.12;;;;;;;19.21;69.75;99062.59;1717254;81;21070;-50
2021/08/31 07:19:10;;;;;;;1.42;1.17;;;;;;;19.24;69.30;99060.91;1718111;80;20958;-50
2021/08/31 07:21:38;;;;;;;1.95;1.00;;;;;;;19.26;69.11;99068.46;1716726;81;21066;-51
2021/08/31 07:24:05;;;;;;;2.15;1.10;;;;;;;19.29;69.33;99070.05;1723959;81;21100;-51
2021/08/31 07:26:31;;;;;;;1.77;0.90;;;;;;;19.32;68.67;99072.47;1662533;84;21510;-51
2021/08/31 07:28:57;;;;;;;1.25;1.10;;;;;;;19.34;68.13;99062.77;1717675;81;21535;-50
2021/08/31 07:31:24;;;;;;;1.02;1.00;;;;;;;19.33;68.02;99064.64;1717028;81;21089;-52
2021/08/31 07:33:50;;;;;;;2.37;1.37;;;;;;;19.36;68.12;99067.09;1718077;81;21117;-51
2021/08/31 07:36:21;;;;;;;1.10;1.00;;;;;;;19.41;68.51;99071.59;1714628;81;21112;-52
2021/08/31 07:38:45;;;;;;;1.00;0.80;;;;;;;19.46;68.62;99072.53;1723969;81;21729;-53
2021/08/31 07:41:11;;;;;;;1.25;0.90;;;;;;;19.53;68.07;99073.70;1719985;81;22207;-51
2021/08/31 07:43:38;;;;;;;3.60;0.90;;;;;;;19.59;67.90;99075.83;1715694;81;21488;-51
2021/08/31 07:46:05;;;;;;;0.93;0.88;;;;;;;19.64;67.56;99075.77;1718726;81;21558;-51
2021/08/31 07:48:31;;;;;;;1.00;0.90;;;;;;;19.68;67.20;99076.81;1725803;81;21072;-51
2021/08/31 07:50:58;;;;;;;2.25;1.20;;;;;;;19.72;66.92;99083.72;1717768;81;21131;-51
2021/08/31 07:53:24;;;;;;;1.20;1.10;;;;;;;19.76;67.01;99082.39;1718902;81;21046;-52
2021/08/31 07:55:50;;;;;;;0.90;0.90;;;;;;;19.79;67.00;99080.75;1719281;81;21073;-51
2021/08/31 07:58:17;;;;;;;2.42;1.25;;;;;;;19.83;66.88;99072.59;1721830;81;21017;-51
2021/08/31 08:00:44;;;;;;;2.10;1.00;;;;;;;19.84;67.42;99071.59;1721491;81;21119;-51
2021/08/31 08:03:10;;;;;;;1.12;0.93;;;;;;;19.88;67.51;99074.39;1727101;80;22800;-51
2021/08/31 08:05:37;;;;;;;2.15;0.90;;;;;;;19.93;67.57;99066.09;1728105;81;22352;-52
2021/08/31 08:08:03;;;;;;;2.50;1.00;;;;;;;19.99;68.03;99070.95;1724819;80;21060;-51
2021/08/31 08:10:30;;;;;;;1.00;0.90;;;;;;;20.07;67.43;99068.86;1724856;81;21068;-53
2021/08/31 08:12:56;;;;;;;1.12;1.02;;;;;;;20.16;67.28;99078.86;1721567;81;21521;-51
2021/08/31 08:15:23;;;;;;;1.67;1.05;;;;;;;20.21;66.76;99072.96;1728592;81;21076;-53
2021/08/31 08:17:50;;;;;;;1.15;1.05;;;;;;;20.21;65.82;99083.89;1723999;81;22262;-51
2021/08/31 08:20:16;;;;;;;1.20;1.10;;;;;;;20.17;65.30;99087.41;1724642;81;21544;-53
2021/08/31 08:22:44;;;;;;;0.90;0.90;;;;;;;20.14;65.56;99086.37;1686393;83;21127;-51
2021/08/31 08:25:12;;;;;;;0.70;0.70;;;;;;;20.17;65.93;99087.41;1725703;81;21064;-51
2021/08/31 08:27:39;;;;;;;1.65;0.78;;;;;;;20.22;65.75;99089.72;1725599;81;21856;-51
2021/08/31 08:30:06;;;;;;;3.70;0.80;;;;;;;20.28;65.24;99090.47;1729751;81;20949;-51
2021/08/31 08:32:32;;;;;;;2.52;0.70;;;;;;;20.31;64.90;99095.64;1726238;81;20926;-50
2021/08/31 08:34:58;;;;;;;1.32;0.70;;;;;;;20.36;64.51;99094.20;1730914;81;21405;-53
2021/08/31 08:37:24;;;;;;;0.70;0.70;;;;;;;20.42;64.51;99095.45;1724231;81;21445;-52
2021/08/31 08:39:51;;;;;;;0.70;0.70;;;;;;;20.51;64.81;99094.55;1723576;81;21074;-50
2021/08/31 08:42:17;;;;;;;0.80;0.80;;;;;;;20.61;64.83;99095.34;1721094;80;20917;-52
2021/08/31 08:44:45;;;;;;;1.45;0.70;;;;;;;20.71;64.11;99096.66;1726337;80;20933;-51
2021/08/31 08:47:14;;;;;;;0.70;0.70;;;;;;;20.77;62.93;99101.50;1727602;81;20929;-50
2021/08/31 08:49:43;;;;;;;0.70;0.70;;;;;;;20.79;62.43;99096.75;1728540;80;21443;-51
2021/08/31 08:52:10;;;;;;;1.25;0.80;;;;;;;20.83;62.58;99099.55;1736683;81;21751;-51
2021/08/31 08:54:36;;;;;;;0.60;0.60;;;;;;;20.87;62.24;99088.63;1724809;81;20972;-53
2021/08/31 08:57:03;;;;;;;0.62;0.62;;;;;;;20.92;62.10;99095.02;1723710;81;21402;-52
2021/08/31 08:59:29;;;;;;;0.88;0.60;;;;;;;20.96;61.71;99084.09;1726672;81;20900;-51
2021/08/31 09:01:57;;;;;;;0.60;0.50;;;;;;;20.96;61.30;99080.86;1725063;81;21052;-51
2021/08/31 09:04:48;;;;;;;3.70;0.70;;;;;;;20.97;60.65;99078.98;1722583;81;21149;-50
2021/08/31 09:07:24;;;;;;;0.60;0.60;;;;;;;20.96;60.10;99078.13;1721441;81;21676;-52
2021/08/31 09:10:22;;;;;;;1.05;0.70;;;;;;;20.93;60.07;99076.20;1725885;81;21507;-52
2021/08/31 09:12:52;;;;;;;0.60;0.60;;;;;;;20.91;60.64;99080.98;1722258;81;21400;-51
2021/08/31 09:15:27;;;;;;;0.60;0.60;;;;;;;20.93;60.43;99077.56;1706380;82;21709;-51
2021/08/31 09:18:13;;;;;;;0.50;0.50;;;;;;;20.96;60.56;99075.89;1718016;81;21097;-53
2021/08/31 09:20:45;;;;;;;0.57;0.53;;;;;;;21.03;59.96;99077.84;1721108;81;21077;-53
2021/08/31 09:23:19;;;;;;;0.82;0.50;;;;;;;21.13;58.76;99080.00;1719191;81;21107;-52
2021/08/31 09:25:47;;;;;;;0.53;0.50;;;;;;;21.22;58.64;99076.00;1721354;81;20864;-50
2021/08/31 09:28:30;;;;;;;0.60;0.60;;;;;;;21.31;58.85;99074.55;1730954;81;21101;-50
2021/08/31 09:31:14;;;;;;;0.68;0.68;;;;;;;21.37;58.09;99079.89;1719531;81;21225;-52
2021/08/31 09:33:44;;;;;;;0.53;0.50;;;;;;;21.37;57.77;99080.75;1728579;81;28002;-51
2021/08/31 09:36:20;;;;;;;0.53;0.53;;;;;;;21.35;56.90;99080.58;1723822;81;21298;-52
2021/08/31 09:38:57;;;;;;;0.75;0.50;;;;;;;21.29;56.86;99086.16;1718036;81;21046;-53
2021/08/31 09:41:40;;;;;;;0.55;0.55;;;;;;;21.26;56.87;99076.91;1718558;80;21440;-52
2021/08/31 09:44:13;;;;;;;0.50;0.42;;;;;;;21.22;56.75;99096.02;1724597;81;21062;-52
2021/08/31 09:47:00;;;;;;;0.50;0.50;;;;;;;21.15;55.51;99090.80;1709447;81;21078;-52
2021/08/31 09:49:36;;;;;;;0.50;0.50;;;;;;;21.09;55.75;99093.66;1722635;81;21041;-52
2021/08/31 09:52:15;;;;;;;0.65;0.50;;;;;;;21.06;55.85;99095.33;1718661;81;21426;-52
2021/08/31 09:54:46;;;;;;;0.60;0.50;;;;;;;21.08;56.23;99091.94;1723756;81;21136;-50
2021/08/31 09:57:31;;;;;;;2.02;0.53;;;;;;;21.17;56.20;99092.02;1719391;81;21060;-50
2021/08/31 09:59:59;;;;;;;1.00;0.50;;;;;;;21.27;56.81;99096.39;1718639;81;20963;-51
2021/08/31 10:02:27;;;;;;;0.55;0.53;;;;;;;21.37;55.79;99082.62;1719113;81;20942;-50
2021/08/31 10:04:54;;;;;;;4.15;0.60;;;;;;;21.39;56.05;99095.14;1720353;81;21059;-52
2021/08/31 10:07:23;;;;;;;0.60;0.60;;;;;;;21.42;55.64;99093.47;1716271;81;21093;-52
2021/08/31 10:09:50;;;;;;;0.60;0.60;;;;;;;21.42;55.89;99095.34;1715166;81;22607;-52
2021/08/31 10:12:20;;;;;;;1.82;0.50;;;;;;;21.42;55.37;99096.21;1720138;81;21386;-50
2021/08/31 10:14:53;;;;;;;0.70;0.60;;;;;;;21.39;55.48;99092.41;1729124;81;22201;-53
2021/08/31 10:17:25;;;;;;;0.50;0.50;;;;;;;21.44;56.27;99098.25;1720532;80;21081;-53
2021/08/31 10:19:53;;;;;;;1.72;0.50;;;;;;;21.54;56.76;99094.06;1715428;81;21065;-52
2021/08/31 10:22:20;;;;;;;0.50;0.50;;;;;;;21.68;56.29;99089.91;1730434;81;22142;-51
2021/08/31 10:24:47;;;;;;;2.47;0.50;;;;;;;21.76;56.20;99096.30;1661354;84;20973;-51
2021/08/31 10:27:38;;;;;;;2.85;0.40;;;;;;;21.80;55.05;99093.57;1640872;85;21549;-51
2021/08/31 10:30:27;;;;;;;0.50;0.50;;;;;;;21.82;53.94;99079.21;1714125;81;21065;-51
2021/08/31 10:33:01;;;;;;;1.00;0.40;;;;;;;21.83;53.55;99095.14;1718818;81;20995;-52
2021/08/31 10:35:42;;;;;;;0.40;0.40;;;;;;;21.82;53.29;99100.27;1718489;81;21116;-53
2021/08/31 10:38:09;;;;;;;0.50;0.50;;;;;;;21.80;53.88;99098.19;1711733;81;21568;-53
2021/08/31 10:40:43;;;;;;;0.40;0.40;;;;;;;21.70;53.87;99096.91;1724247;81;21106;-50
2021/08/31 10:43:12;;;;;;;0.60;0.45;;;;;;;21.58;53.51;99103.69;1717551;81;21460;-51
2021/08/31 10:45:43;;;;;;;0.40;0.40;;;;;;;21.51;53.74;99098.50;1722380;81;21484;-52
2021/08/31 10:48:27;;;;;;;0.50;0.50;;;;;;;21.47;54.62;99092.47;1715839;81;22754;-54
2021/08/31 10:51:02;;;;;;;0.40;0.40;;;;;;;21.49;54.73;99091.81;1721099;81;21324;-51
2021/08/31 10:53:44;;;;;;;2.92;0.40;;;;;;;21.57;55.06;99094.26;1715469;81;21065;-50
2021/08/31 10:56:26;;;;;;;2.50;0.40;;;;;;;21.64;54.92;99093.45;1718787;81;21145;-53
2021/08/31 10:59:04;;;;;;;1.00;0.50;;;;;;;21.75;54.43;99093.72;1734078;81;21056;-51
2021/08/31 11:01:41;;;;;;;1.47;0.50;;;;;;;21.83;54.57;99093.26;1722249;80;21765;-53
2021/08/31 11:04:28;;;;;;;0.78;0.30;;;;;;;21.93;53.70;99091.78;1723475;81;21025;-51
2021/08/31 11:07:00;;;;;;;0.40;0.30;;;;;;;22.02;53.08;99092.73;1719624;81;21409;-51
2021/08/31 11:09:27;;;;;;;0.40;0.40;;;;;;;22.10;53.34;99090.03;1724699;81;20945;-52
2021/08/31 11:12:06;;;;;;;0.40;0.40;;;;;;;22.11;53.00;99091.75;1722161;81;21429;-53
2021/08/31 11:14:48;;;;;;;0.45;0.40;;;;;;;22.11;52.93;99095.36;1726305;81;21844;-52
2021/08/31 11:17:35;;;;;;;0.40;0.40;;;;;;;22.12;52.55;99104.41;1728239;81;20891;-50
2021/08/31 11:20:15;;;;;;;0.40;0.37;;;;;;;22.06;52.67;99092.22;1724390;81;20887;-52
2021/08/31 11:22:42;;;;;;;2.25;0.47;;;;;;;22.04;52.25;99097.51;1724197;81;20927;-50
2021/08/31 11:25:09;;;;;;;0.72;0.40;;;;;;;22.06;52.24;99091.36;1722767;81;20960;-52
2021/08/31 11:27:59;;;;;;;0.50;0.35;;;;;;;22.08;52.40;99099.78;1729100;81;22193;-51
2021/08/31 11:30:25;;;;;;;0.35;0.30;;;;;;;22.15;53.10;99095.87;1722414;81;20928;-50
2021/08/31 11:33:21;;;;;;;0.40;0.40;;;;;;;22.18;51.34;99093.67;1725116;81;21053;-50
2021/08/31 11:35:54;;;;;;;0.40;0.40;;;;;;;22.16;51.26;99097.59;1727458;81;20962;-53
2021/08/31 11:38:46;;;;;;;0.42;0.40;;;;;;;22.07;51.54;99102.67;1723488;81;20912;-53
2021/08/31 11:41:30;;;;;;;0.70;0.42;;;;;;;22.00;51.65;99102.98;1722753;81;21132;-53
2021/08/31 11:43:58;;;;;;;;;;;;;;;21.95;52.45;99096.56;1725854;81;20931;-52
2021/08/31 11:46:29;;;;;;;0.30;0.30;;;;;;;22.00;52.56;99090.14;1723569;81;20111;-51